Blachly, Oregon
Current Conditions -  °F | °C
As of 12:27 PM on Thursday 29 Jan 2015 (Local Time) from KEUG Reporting Station
Broken Clouds Broken Clouds  
Wind Chill: 51°   Ceiling: 1100
Heat Index: 51°   Visibility: 10mi
Dew Point: 46°   Wind: 7mph
Humidity: 83%   Direction: 40°NE
Pressure: 30.27"   Gusts: NA
Location:  44.19°N, 123.53°W
Report Text: KEUG 292027Z 04006KT 10SM BKN011 11/08 A3027 RMK AO2 T01060078
Loading
Personal Weather Stations






























Interactive Weather Map New forecast layout! Learn more

10-Day Weather Forecast

Advertisements
Track Severe Weather on mobile